EFW983X HESH-EGKK
Flight info
| Callsign | EFW983X |
|---|---|
| Flight time | 5h 23m |
| Altitude | 30000 |
| Route | DCT KAPIT L677 CVO L617 NOZ L551 ANTAR DCT KPC UN133 KOROS DCT DISOR DCT LONTA UL608 DOLEV DCT PEVAL/N0452F320 DCT BORMI DCT RESIA DCT ELMUR DCT RIPUS DCT DITON DCT HOC DCT LUL DCT RLP DCT ROTSI DCT KOTUN DCT NINAL DCT KESAX DCT KUNAV KUNAV1G |
| Aircraft | A320/M-SDE3FGIJ1RWXY/SB1 |
Departure
| Time | 2026-05-07 13:41 |
|---|---|
| Airport | Sharm El Sheikh International Airport (HESH) |
Arrival
| Time | 2026-05-07 19:04 |
|---|---|
| Airport | London Gatwick Airport (EGKK) |
| Time | Latitude | Longitude | Altitude | Speed | Heading |
|---|---|---|---|---|---|
| 2026-05-07 13:03 | 27.97804 | 34.38707 | 172 ft | 0 kts | 132° |
| 2026-05-07 13:29 | 27.97805 | 34.38705 | 172 ft | 2 kts | 133° |
| 2026-05-07 13:29 | 27.97824 | 34.38685 | 172 ft | 4 kts | 141° |
| 2026-05-07 13:29 | 27.97846 | 34.38667 | 172 ft | 4 kts | 152° |
| 2026-05-07 13:29 | 27.97863 | 34.38658 | 172 ft | 4 kts | 160° |
| 2026-05-07 13:30 | 27.97888 | 34.38651 | 172 ft | 4 kts | 173° |
| 2026-05-07 13:30 | 27.97896 | 34.38650 | 172 ft | 0 kts | 177° |
| 2026-05-07 13:33 | 27.97885 | 34.38651 | 172 ft | 2 kts | 172° |
| 2026-05-07 13:33 | 27.97883 | 34.38653 | 172 ft | 1 kts | 152° |
| 2026-05-07 13:33 | 27.97876 | 34.38663 | 172 ft | 2 kts | 135° |
| 2026-05-07 13:34 | 27.97844 | 34.38661 | 172 ft | 9 kts | 209° |
| 2026-05-07 13:34 | 27.97734 | 34.38551 | 172 ft | 11 kts | 222° |
| 2026-05-07 13:34 | 27.97675 | 34.38489 | 172 ft | 12 kts | 224° |
| 2026-05-07 13:35 | 27.97613 | 34.38423 | 172 ft | 13 kts | 223° |
| 2026-05-07 13:35 | 27.97552 | 34.38387 | 172 ft | 8 kts | 143° |
| 2026-05-07 13:35 | 27.97517 | 34.38440 | 172 ft | 8 kts | 127° |
| 2026-05-07 13:35 | 27.97481 | 34.38493 | 172 ft | 9 kts | 128° |
| 2026-05-07 13:36 | 27.97433 | 34.38542 | 172 ft | 9 kts | 165° |
| 2026-05-07 13:36 | 27.97379 | 34.38503 | 172 ft | 11 kts | 221° |
| 2026-05-07 13:36 | 27.97310 | 34.38430 | 172 ft | 16 kts | 223° |
| 2026-05-07 13:36 | 27.97213 | 34.38331 | 172 ft | 21 kts | 221° |
| 2026-05-07 13:37 | 27.97106 | 34.38219 | 172 ft | 21 kts | 223° |
| 2026-05-07 13:37 | 27.97003 | 34.38111 | 173 ft | 8 kts | 218° |
| 2026-05-07 13:37 | 27.96973 | 34.38130 | 173 ft | 6 kts | 130° |
| 2026-05-07 13:37 | 27.96929 | 34.38188 | 173 ft | 11 kts | 130° |
| 2026-05-07 13:38 | 27.96879 | 34.38255 | 173 ft | 12 kts | 130° |
| 2026-05-07 13:38 | 27.96824 | 34.38325 | 174 ft | 12 kts | 134° |
| 2026-05-07 13:38 | 27.96763 | 34.38394 | 174 ft | 13 kts | 135° |
| 2026-05-07 13:38 | 27.96699 | 34.38468 | 174 ft | 14 kts | 133° |
| 2026-05-07 13:39 | 27.96632 | 34.38548 | 173 ft | 14 kts | 133° |
| 2026-05-07 13:39 | 27.96594 | 34.38601 | 173 ft | 4 kts | 90° |
| 2026-05-07 13:39 | 27.96609 | 34.38628 | 173 ft | 5 kts | 43° |
| 2026-05-07 13:39 | 27.96645 | 34.38664 | 173 ft | 18 kts | 41° |
| 2026-05-07 13:40 | 27.96916 | 34.38945 | 175 ft | 85 kts | 43° |
| 2026-05-07 13:40 | 27.97485 | 34.39535 | 174 ft | 135 kts | 43° |
| 2026-05-07 13:40 | 27.98282 | 34.40342 | 231 ft | 170 kts | 40° |
| 2026-05-07 13:40 | 27.99164 | 34.41231 | 772 ft | 169 kts | 41° |
| 2026-05-07 13:41 | 28.00024 | 34.42141 | 1302 ft | 170 kts | 42° |
| 2026-05-07 13:41 | 28.00930 | 34.43067 | 1584 ft | 183 kts | 41° |
| 2026-05-07 13:41 | 28.01983 | 34.43981 | 1766 ft | 199 kts | 21° |
| 2026-05-07 13:41 | 28.03382 | 34.44000 | 1927 ft | 216 kts | 336° |
| 2026-05-07 13:42 | 28.04595 | 34.42889 | 2153 ft | 237 kts | 310° |
| 2026-05-07 13:42 | 28.05655 | 34.41353 | 2418 ft | 258 kts | 307° |
| 2026-05-07 13:42 | 28.06737 | 34.39671 | 2937 ft | 267 kts | 306° |
| 2026-05-07 13:42 | 28.07828 | 34.37965 | 3687 ft | 268 kts | 307° |
| 2026-05-07 13:43 | 28.08937 | 34.36267 | 4438 ft | 269 kts | 308° |
| 2026-05-07 13:43 | 28.10066 | 34.34574 | 5160 ft | 271 kts | 309° |
| 2026-05-07 13:43 | 28.11212 | 34.32887 | 5817 ft | 273 kts | 309° |
| 2026-05-07 13:43 | 28.12375 | 34.31188 | 6556 ft | 273 kts | 310° |
| 2026-05-07 13:44 | 28.13548 | 34.29482 | 7193 ft | 276 kts | 309° |
| 2026-05-07 13:44 | 28.14733 | 34.27760 | 7812 ft | 278 kts | 309° |
| 2026-05-07 13:44 | 28.15937 | 34.26014 | 8430 ft | 282 kts | 308° |
| 2026-05-07 13:44 | 28.17155 | 34.24249 | 9016 ft | 286 kts | 308° |
| 2026-05-07 13:45 | 28.18388 | 34.22466 | 9634 ft | 289 kts | 307° |
| 2026-05-07 13:45 | 28.19622 | 34.20684 | 10209 ft | 293 kts | 308° |
| 2026-05-07 13:45 | 28.20925 | 34.18802 | 10351 ft | 313 kts | 308° |
| 2026-05-07 13:45 | 28.22309 | 34.16803 | 10476 ft | 332 kts | 308° |
| 2026-05-07 13:46 | 28.23769 | 34.14688 | 10640 ft | 348 kts | 308° |
| 2026-05-07 13:46 | 28.25280 | 34.12496 | 11067 ft | 354 kts | 308° |
| 2026-05-07 13:46 | 28.26808 | 34.10279 | 11600 ft | 358 kts | 308° |
| 2026-05-07 13:46 | 28.28346 | 34.08045 | 12151 ft | 360 kts | 307° |
| 2026-05-07 13:47 | 28.29898 | 34.05794 | 12671 ft | 363 kts | 307° |
| 2026-05-07 13:47 | 28.31459 | 34.03530 | 13192 ft | 366 kts | 307° |
| 2026-05-07 13:47 | 28.33027 | 34.01249 | 13736 ft | 368 kts | 307° |
| 2026-05-07 13:47 | 28.34608 | 33.98942 | 14210 ft | 371 kts | 307° |
| 2026-05-07 13:48 | 28.36200 | 33.96623 | 14682 ft | 373 kts | 307° |
| 2026-05-07 13:48 | 28.37779 | 33.94322 | 15167 ft | 375 kts | 307° |
| 2026-05-07 13:48 | 28.39385 | 33.91976 | 15692 ft | 376 kts | 307° |
| 2026-05-07 13:48 | 28.40995 | 33.89625 | 16174 ft | 378 kts | 307° |
| 2026-05-07 13:49 | 28.42616 | 33.87257 | 16640 ft | 381 kts | 307° |
| 2026-05-07 13:49 | 28.44250 | 33.84869 | 17093 ft | 384 kts | 306° |
| 2026-05-07 13:49 | 28.45895 | 33.82465 | 17632 ft | 386 kts | 307° |
| 2026-05-07 13:49 | 28.47554 | 33.80040 | 18142 ft | 389 kts | 307° |
| 2026-05-07 13:50 | 28.49222 | 33.77597 | 18578 ft | 392 kts | 307° |
| 2026-05-07 13:50 | 28.50900 | 33.75139 | 19058 ft | 394 kts | 307° |
| 2026-05-07 13:50 | 28.52585 | 33.72669 | 19521 ft | 397 kts | 307° |
| 2026-05-07 13:50 | 28.54262 | 33.70213 | 19971 ft | 399 kts | 307° |
| 2026-05-07 13:51 | 28.55969 | 33.67709 | 20419 ft | 401 kts | 307° |
| 2026-05-07 13:51 | 28.57665 | 33.65217 | 21011 ft | 398 kts | 307° |
| 2026-05-07 13:51 | 28.59359 | 33.62718 | 21445 ft | 399 kts | 307° |
| 2026-05-07 13:51 | 28.61061 | 33.60202 | 21804 ft | 403 kts | 307° |
| 2026-05-07 13:52 | 28.62780 | 33.57660 | 22091 ft | 406 kts | 307° |
| 2026-05-07 13:52 | 28.64506 | 33.55118 | 22530 ft | 405 kts | 307° |
| 2026-05-07 13:52 | 28.66238 | 33.52576 | 22944 ft | 406 kts | 307° |
| 2026-05-07 13:52 | 28.67955 | 33.50054 | 23255 ft | 409 kts | 308° |
| 2026-05-07 13:53 | 28.69715 | 33.47463 | 23470 ft | 414 kts | 308° |
| 2026-05-07 13:53 | 28.71476 | 33.44869 | 23834 ft | 414 kts | 307° |
| 2026-05-07 13:53 | 28.73247 | 33.42249 | 23985 ft | 420 kts | 307° |
| 2026-05-07 13:53 | 28.75039 | 33.39601 | 24214 ft | 423 kts | 307° |
| 2026-05-07 13:54 | 28.76833 | 33.36953 | 24613 ft | 421 kts | 308° |
| 2026-05-07 13:54 | 28.78628 | 33.34305 | 24855 ft | 424 kts | 308° |
| 2026-05-07 13:54 | 28.80417 | 33.31672 | 25059 ft | 426 kts | 308° |
| 2026-05-07 13:54 | 28.82231 | 33.29001 | 25402 ft | 425 kts | 307° |
| 2026-05-07 13:55 | 28.84039 | 33.26334 | 25794 ft | 424 kts | 307° |
| 2026-05-07 13:55 | 28.85839 | 33.23670 | 26102 ft | 425 kts | 307° |
| 2026-05-07 13:55 | 28.87634 | 33.21001 | 26479 ft | 423 kts | 307° |
| 2026-05-07 13:55 | 28.89420 | 33.18338 | 26876 ft | 422 kts | 307° |
| 2026-05-07 13:56 | 28.91202 | 33.15679 | 27257 ft | 421 kts | 307° |
| 2026-05-07 13:56 | 28.92972 | 33.13031 | 27682 ft | 418 kts | 307° |
| 2026-05-07 13:56 | 28.94722 | 33.10422 | 28064 ft | 418 kts | 307° |
| 2026-05-07 13:56 | 28.96490 | 33.07793 | 28403 ft | 418 kts | 307° |
| 2026-05-07 13:57 | 28.98266 | 33.05157 | 28775 ft | 417 kts | 307° |
| 2026-05-07 13:57 | 29.00038 | 33.02520 | 29001 ft | 420 kts | 307° |
| 2026-05-07 13:57 | 29.01810 | 32.99879 | 29487 ft | 416 kts | 307° |
| 2026-05-07 13:57 | 29.03566 | 32.97262 | 29896 ft | 415 kts | 307° |
| 2026-05-07 13:58 | 29.05334 | 32.94631 | 29979 ft | 420 kts | 307° |
| 2026-05-07 13:58 | 29.08954 | 32.89237 | 29978 ft | 431 kts | 307° |
| 2026-05-07 13:59 | 29.12607 | 32.83761 | 29985 ft | 430 kts | 307° |
| 2026-05-07 13:59 | 29.16202 | 32.78367 | 29997 ft | 429 kts | 307° |
| 2026-05-07 14:00 | 29.19827 | 32.72934 | 30003 ft | 432 kts | 307° |
| 2026-05-07 14:00 | 29.23494 | 32.67442 | 30013 ft | 434 kts | 307° |
| 2026-05-07 14:01 | 29.27156 | 32.61931 | 30030 ft | 433 kts | 307° |
| 2026-05-07 14:01 | 29.30827 | 32.56457 | 30032 ft | 433 kts | 308° |
| 2026-05-07 14:02 | 29.34559 | 32.51074 | 30033 ft | 434 kts | 308° |
| 2026-05-07 14:02 | 29.38316 | 32.45661 | 30035 ft | 434 kts | 308° |
| 2026-05-07 14:03 | 29.42055 | 32.40213 | 30036 ft | 434 kts | 307° |
| 2026-05-07 14:03 | 29.45764 | 32.34777 | 30067 ft | 431 kts | 308° |
| 2026-05-07 14:04 | 29.49460 | 32.29360 | 30057 ft | 431 kts | 308° |
| 2026-05-07 14:04 | 29.53160 | 32.23943 | 30063 ft | 431 kts | 308° |
| 2026-05-07 14:05 | 29.56841 | 32.18546 | 30058 ft | 432 kts | 308° |
| 2026-05-07 14:05 | 29.60544 | 32.13103 | 30066 ft | 432 kts | 307° |
| 2026-05-07 14:06 | 29.64238 | 32.07662 | 30074 ft | 431 kts | 307° |
| 2026-05-07 14:06 | 29.67933 | 32.02221 | 30076 ft | 431 kts | 308° |
| 2026-05-07 14:07 | 29.71599 | 31.96813 | 30080 ft | 430 kts | 308° |
| 2026-05-07 14:07 | 29.75286 | 31.91368 | 30090 ft | 430 kts | 307° |
| 2026-05-07 14:08 | 29.78943 | 31.85946 | 30086 ft | 431 kts | 307° |
| 2026-05-07 14:08 | 29.82541 | 31.80411 | 30086 ft | 431 kts | 306° |
| 2026-05-07 14:09 | 29.86072 | 31.74833 | 30091 ft | 430 kts | 306° |
| 2026-05-07 14:09 | 29.89609 | 31.69268 | 30096 ft | 429 kts | 306° |
| 2026-05-07 14:10 | 29.93134 | 31.63769 | 30093 ft | 428 kts | 306° |
| 2026-05-07 14:10 | 29.96700 | 31.58262 | 30074 ft | 428 kts | 307° |
| 2026-05-07 14:11 | 30.00275 | 31.52762 | 30074 ft | 428 kts | 307° |
| 2026-05-07 14:11 | 30.03831 | 31.47260 | 30079 ft | 426 kts | 307° |
| 2026-05-07 14:12 | 30.07362 | 31.41773 | 30080 ft | 425 kts | 307° |
| 2026-05-07 14:12 | 30.11243 | 31.36694 | 30076 ft | 424 kts | 316° |
| 2026-05-07 14:13 | 30.15574 | 31.32052 | 30074 ft | 424 kts | 316° |
| 2026-05-07 14:13 | 30.19914 | 31.27405 | 30066 ft | 424 kts | 316° |
| 2026-05-07 14:14 | 30.24215 | 31.22784 | 30067 ft | 424 kts | 316° |
| 2026-05-07 14:14 | 30.28536 | 31.18131 | 30075 ft | 423 kts | 316° |
| 2026-05-07 14:15 | 30.32841 | 31.13485 | 30082 ft | 423 kts | 316° |
| 2026-05-07 14:15 | 30.37143 | 31.08841 | 30080 ft | 422 kts | 316° |
| 2026-05-07 14:16 | 30.41411 | 31.04225 | 30084 ft | 422 kts | 316° |
| 2026-05-07 14:16 | 30.45699 | 30.99582 | 30085 ft | 422 kts | 316° |
| 2026-05-07 14:17 | 30.49986 | 30.94942 | 30085 ft | 421 kts | 317° |
| 2026-05-07 14:17 | 30.54268 | 30.90302 | 30093 ft | 420 kts | 317° |
| 2026-05-07 14:18 | 30.58529 | 30.85669 | 30098 ft | 419 kts | 317° |
| 2026-05-07 14:18 | 30.62757 | 30.81067 | 30097 ft | 419 kts | 317° |
| 2026-05-07 14:19 | 30.67007 | 30.76444 | 30098 ft | 418 kts | 317° |
| 2026-05-07 14:19 | 30.70546 | 30.72596 | 30101 ft | 418 kts | 317° |
| 2026-05-07 14:20 | 30.74798 | 30.67963 | 30095 ft | 418 kts | 317° |
| 2026-05-07 14:20 | 30.79032 | 30.63318 | 30094 ft | 418 kts | 317° |
| 2026-05-07 14:21 | 30.83244 | 30.58705 | 30105 ft | 418 kts | 317° |
| 2026-05-07 14:21 | 30.87486 | 30.54064 | 30105 ft | 418 kts | 317° |
| 2026-05-07 14:22 | 30.92409 | 30.48664 | 30108 ft | 418 kts | 317° |
| 2026-05-07 14:22 | 30.95929 | 30.44803 | 30103 ft | 418 kts | 317° |
| 2026-05-07 14:23 | 31.00160 | 30.40152 | 30108 ft | 418 kts | 316° |
| 2026-05-07 14:23 | 31.04381 | 30.35497 | 30110 ft | 417 kts | 317° |
| 2026-05-07 14:24 | 31.08339 | 30.30571 | 30111 ft | 417 kts | 306° |
| 2026-05-07 14:24 | 31.10780 | 30.24456 | 30112 ft | 422 kts | 290° |
| 2026-05-07 14:25 | 31.12546 | 30.17923 | 30109 ft | 422 kts | 290° |
| 2026-05-07 14:25 | 31.14331 | 30.11394 | 30114 ft | 422 kts | 290° |
| 2026-05-07 14:26 | 31.16116 | 30.04861 | 30104 ft | 422 kts | 291° |
| 2026-05-07 14:26 | 31.18204 | 29.98547 | 30104 ft | 417 kts | 303° |
| 2026-05-07 14:27 | 31.21928 | 29.93444 | 30106 ft | 413 kts | 322° |
| 2026-05-07 14:27 | 31.26876 | 29.90030 | 30108 ft | 413 kts | 332° |
| 2026-05-07 14:28 | 31.31959 | 29.86867 | 30106 ft | 414 kts | 331° |
| 2026-05-07 14:28 | 31.37048 | 29.83669 | 30108 ft | 414 kts | 331° |
| 2026-05-07 14:29 | 31.42095 | 29.80498 | 30121 ft | 414 kts | 331° |
| 2026-05-07 14:29 | 31.47180 | 29.77307 | 30133 ft | 414 kts | 331° |
| 2026-05-07 14:30 | 31.52258 | 29.74118 | 30134 ft | 413 kts | 331° |
| 2026-05-07 14:30 | 31.57330 | 29.70934 | 30145 ft | 413 kts | 331° |
| 2026-05-07 14:31 | 31.62397 | 29.67744 | 30142 ft | 413 kts | 331° |
| 2026-05-07 14:31 | 31.67436 | 29.64568 | 30142 ft | 413 kts | 331° |
| 2026-05-07 14:32 | 31.72501 | 29.61365 | 30143 ft | 413 kts | 331° |
| 2026-05-07 14:32 | 31.77575 | 29.58155 | 30145 ft | 413 kts | 331° |
| 2026-05-07 14:33 | 31.82651 | 29.54948 | 30157 ft | 413 kts | 331° |
| 2026-05-07 14:33 | 31.87692 | 29.51756 | 30140 ft | 414 kts | 331° |
| 2026-05-07 14:34 | 31.92768 | 29.48534 | 30145 ft | 413 kts | 331° |
| 2026-05-07 14:34 | 31.97798 | 29.45331 | 30150 ft | 413 kts | 331° |
| 2026-05-07 14:35 | 32.02863 | 29.42111 | 30153 ft | 413 kts | 331° |
| 2026-05-07 14:35 | 32.07931 | 29.38897 | 30152 ft | 413 kts | 331° |
| 2026-05-07 14:36 | 32.12992 | 29.35678 | 30153 ft | 413 kts | 331° |
| 2026-05-07 14:36 | 32.18022 | 29.32465 | 30149 ft | 414 kts | 331° |
| 2026-05-07 14:37 | 32.23094 | 29.29211 | 30148 ft | 414 kts | 331° |
| 2026-05-07 14:37 | 32.30706 | 29.24329 | 30137 ft | 414 kts | 331° |
| 2026-05-07 14:38 | 32.35771 | 29.21080 | 30149 ft | 414 kts | 331° |
| 2026-05-07 14:38 | 32.40809 | 29.17833 | 30147 ft | 414 kts | 330° |
| 2026-05-07 14:39 | 32.45865 | 29.14560 | 30154 ft | 414 kts | 330° |
| 2026-05-07 14:39 | 32.50924 | 29.11293 | 30156 ft | 414 kts | 330° |
| 2026-05-07 14:40 | 32.55988 | 29.08025 | 30155 ft | 414 kts | 330° |
| 2026-05-07 14:40 | 32.61013 | 29.04781 | 30156 ft | 414 kts | 330° |
| 2026-05-07 14:41 | 32.66074 | 29.01508 | 30153 ft | 413 kts | 330° |
| 2026-05-07 14:41 | 32.71134 | 28.98233 | 30157 ft | 414 kts | 330° |
| 2026-05-07 14:42 | 32.76195 | 28.94950 | 30144 ft | 415 kts | 330° |
| 2026-05-07 14:42 | 32.81225 | 28.91678 | 30152 ft | 414 kts | 330° |
| 2026-05-07 14:43 | 32.86289 | 28.88388 | 30152 ft | 414 kts | 330° |
| 2026-05-07 14:43 | 32.91349 | 28.85097 | 30155 ft | 414 kts | 330° |
| 2026-05-07 14:44 | 32.96405 | 28.81803 | 30163 ft | 414 kts | 330° |
| 2026-05-07 14:44 | 33.01422 | 28.78516 | 30157 ft | 415 kts | 330° |
| 2026-05-07 14:45 | 33.06485 | 28.75203 | 30142 ft | 415 kts | 330° |
| 2026-05-07 14:45 | 33.11563 | 28.71875 | 30149 ft | 416 kts | 330° |
| 2026-05-07 14:46 | 33.16643 | 28.68540 | 30139 ft | 416 kts | 330° |
| 2026-05-07 14:46 | 33.21696 | 28.65239 | 30137 ft | 416 kts | 330° |
| 2026-05-07 14:47 | 33.26761 | 28.61916 | 30157 ft | 415 kts | 330° |
| 2026-05-07 14:47 | 33.31825 | 28.58578 | 30160 ft | 415 kts | 329° |
| 2026-05-07 14:48 | 33.36894 | 28.55232 | 30158 ft | 415 kts | 330° |
| 2026-05-07 14:48 | 33.41930 | 28.51915 | 30152 ft | 415 kts | 330° |
| 2026-05-07 14:49 | 33.46981 | 28.48572 | 30142 ft | 414 kts | 329° |
| 2026-05-07 14:49 | 33.52037 | 28.45232 | 30146 ft | 415 kts | 329° |
| 2026-05-07 14:50 | 33.57062 | 28.41907 | 30142 ft | 415 kts | 329° |
| 2026-05-07 14:50 | 33.62118 | 28.38554 | 30148 ft | 415 kts | 329° |
| 2026-05-07 14:51 | 33.67179 | 28.35196 | 30143 ft | 414 kts | 329° |
| 2026-05-07 14:51 | 33.72221 | 28.31843 | 30158 ft | 413 kts | 329° |
| 2026-05-07 14:52 | 33.77209 | 28.28508 | 30164 ft | 412 kts | 329° |
| 2026-05-07 14:52 | 33.82228 | 28.25153 | 30164 ft | 412 kts | 329° |
| 2026-05-07 14:53 | 33.87232 | 28.21780 | 30156 ft | 412 kts | 329° |
| 2026-05-07 14:53 | 33.92235 | 28.18380 | 30153 ft | 412 kts | 328° |
| 2026-05-07 14:54 | 33.97201 | 28.15010 | 30149 ft | 412 kts | 329° |
| 2026-05-07 14:54 | 34.02201 | 28.11616 | 30149 ft | 412 kts | 328° |
| 2026-05-07 14:55 | 34.07201 | 28.08217 | 30163 ft | 412 kts | 329° |
| 2026-05-07 14:55 | 34.12205 | 28.04814 | 30164 ft | 411 kts | 329° |
| 2026-05-07 14:56 | 34.17181 | 28.01427 | 30178 ft | 409 kts | 329° |
| 2026-05-07 14:56 | 34.22102 | 27.98069 | 30174 ft | 408 kts | 329° |
| 2026-05-07 14:57 | 34.27047 | 27.94695 | 30169 ft | 407 kts | 329° |
| 2026-05-07 14:57 | 34.31987 | 27.91324 | 30166 ft | 407 kts | 329° |
| 2026-05-07 14:58 | 34.36893 | 27.87983 | 30178 ft | 406 kts | 329° |
| 2026-05-07 14:58 | 34.41811 | 27.84612 | 30174 ft | 406 kts | 328° |
| 2026-05-07 14:59 | 34.46723 | 27.81236 | 30177 ft | 405 kts | 328° |
| 2026-05-07 14:59 | 34.51632 | 27.77856 | 30165 ft | 405 kts | 328° |
| 2026-05-07 15:00 | 34.56494 | 27.74501 | 30169 ft | 404 kts | 328° |
| 2026-05-07 15:00 | 34.61390 | 27.71129 | 30169 ft | 404 kts | 328° |
| 2026-05-07 15:01 | 34.66279 | 27.67748 | 30171 ft | 404 kts | 328° |
| 2026-05-07 15:01 | 34.71173 | 27.64367 | 30162 ft | 405 kts | 328° |
| 2026-05-07 15:02 | 34.76081 | 27.60973 | 30155 ft | 405 kts | 328° |
| 2026-05-07 15:02 | 34.80980 | 27.57571 | 30157 ft | 405 kts | 328° |
| 2026-05-07 15:03 | 34.85848 | 27.54183 | 30161 ft | 405 kts | 328° |
| 2026-05-07 15:03 | 34.90752 | 27.50762 | 30175 ft | 406 kts | 328° |
| 2026-05-07 15:04 | 34.95660 | 27.47350 | 30165 ft | 406 kts | 328° |
| 2026-05-07 15:04 | 35.00560 | 27.43939 | 30173 ft | 405 kts | 329° |
| 2026-05-07 15:05 | 35.05413 | 27.40552 | 30174 ft | 404 kts | 329° |
| 2026-05-07 15:05 | 35.10294 | 27.37126 | 30171 ft | 403 kts | 329° |
| 2026-05-07 15:06 | 35.15156 | 27.33710 | 30167 ft | 403 kts | 329° |
| 2026-05-07 15:06 | 35.20024 | 27.30304 | 30165 ft | 403 kts | 329° |
| 2026-05-07 15:07 | 35.24900 | 27.26883 | 30160 ft | 403 kts | 329° |
| 2026-05-07 15:07 | 35.29758 | 27.23468 | 30158 ft | 403 kts | 329° |
| 2026-05-07 15:08 | 35.34593 | 27.20066 | 30155 ft | 403 kts | 329° |
| 2026-05-07 15:08 | 35.39469 | 27.16624 | 30161 ft | 403 kts | 328° |
| 2026-05-07 15:09 | 35.44441 | 27.13416 | 30158 ft | 405 kts | 333° |
| 2026-05-07 15:09 | 35.48712 | 27.11016 | 30157 ft | 406 kts | 333° |
| 2026-05-07 15:10 | 35.53867 | 27.08136 | 30154 ft | 407 kts | 333° |
| 2026-05-07 15:10 | 35.59015 | 27.05240 | 30152 ft | 407 kts | 333° |
| 2026-05-07 15:11 | 35.64160 | 27.02333 | 30150 ft | 407 kts | 333° |
| 2026-05-07 15:11 | 35.69282 | 26.99438 | 30149 ft | 407 kts | 333° |
| 2026-05-07 15:12 | 35.74432 | 26.96530 | 30160 ft | 407 kts | 333° |
| 2026-05-07 15:12 | 35.79580 | 26.93618 | 30161 ft | 406 kts | 333° |
| 2026-05-07 15:13 | 35.84686 | 26.90718 | 30168 ft | 406 kts | 333° |
| 2026-05-07 15:13 | 35.89822 | 26.87787 | 30166 ft | 406 kts | 333° |
| 2026-05-07 15:14 | 35.94949 | 26.84848 | 30142 ft | 406 kts | 332° |
| 2026-05-07 15:14 | 36.00085 | 26.81898 | 30155 ft | 407 kts | 332° |
| 2026-05-07 15:15 | 36.05197 | 26.78970 | 30161 ft | 406 kts | 332° |
| 2026-05-07 15:15 | 36.10327 | 26.76023 | 30155 ft | 406 kts | 332° |
| 2026-05-07 15:16 | 36.15450 | 26.73058 | 30154 ft | 406 kts | 332° |
| 2026-05-07 15:16 | 36.20542 | 26.70106 | 30155 ft | 406 kts | 332° |
| 2026-05-07 15:17 | 36.25669 | 26.67157 | 30171 ft | 405 kts | 332° |
| 2026-05-07 15:17 | 36.30776 | 26.64225 | 30170 ft | 403 kts | 332° |
| 2026-05-07 15:18 | 36.35867 | 26.61287 | 30167 ft | 403 kts | 332° |
| 2026-05-07 15:18 | 36.40912 | 26.58359 | 30160 ft | 402 kts | 332° |
| 2026-05-07 15:19 | 36.45980 | 26.55404 | 30146 ft | 402 kts | 332° |
| 2026-05-07 15:19 | 36.51063 | 26.52439 | 30150 ft | 403 kts | 332° |
| 2026-05-07 15:20 | 36.56150 | 26.49478 | 30152 ft | 403 kts | 332° |
| 2026-05-07 15:20 | 36.61199 | 26.46527 | 30151 ft | 403 kts | 332° |
| 2026-05-07 15:21 | 36.66281 | 26.43555 | 30152 ft | 403 kts | 332° |
| 2026-05-07 15:21 | 36.71363 | 26.40578 | 30151 ft | 403 kts | 332° |
| 2026-05-07 15:22 | 36.76440 | 26.37596 | 30160 ft | 402 kts | 331° |
| 2026-05-07 15:22 | 36.81467 | 26.34643 | 30162 ft | 401 kts | 331° |
| 2026-05-07 15:23 | 36.86514 | 26.31679 | 30164 ft | 400 kts | 331° |
| 2026-05-07 15:23 | 36.91511 | 26.28738 | 30159 ft | 399 kts | 331° |
| 2026-05-07 15:24 | 36.96532 | 26.25753 | 30149 ft | 399 kts | 331° |
| 2026-05-07 15:24 | 37.01539 | 26.22733 | 30150 ft | 400 kts | 330° |
| 2026-05-07 15:25 | 37.06528 | 26.19668 | 30153 ft | 399 kts | 330° |
| 2026-05-07 15:25 | 37.11496 | 26.16630 | 30153 ft | 399 kts | 330° |
| 2026-05-07 15:26 | 37.16499 | 26.13602 | 30148 ft | 398 kts | 330° |
| 2026-05-07 15:26 | 37.21481 | 26.10552 | 30145 ft | 398 kts | 330° |
| 2026-05-07 15:27 | 37.26431 | 26.07512 | 30154 ft | 398 kts | 330° |
| 2026-05-07 15:27 | 37.31418 | 26.04451 | 30139 ft | 399 kts | 330° |
| 2026-05-07 15:28 | 37.36421 | 26.01383 | 30134 ft | 400 kts | 330° |
| 2026-05-07 15:28 | 37.41429 | 25.98298 | 30135 ft | 400 kts | 330° |
| 2026-05-07 15:29 | 37.46435 | 25.95203 | 30136 ft | 400 kts | 330° |
| 2026-05-07 15:29 | 37.51406 | 25.92127 | 30163 ft | 399 kts | 330° |
| 2026-05-07 15:30 | 37.56419 | 25.89023 | 30124 ft | 401 kts | 330° |
| 2026-05-07 15:30 | 37.61410 | 25.85930 | 30123 ft | 403 kts | 330° |
| 2026-05-07 15:31 | 37.66449 | 25.82807 | 30116 ft | 403 kts | 330° |
| 2026-05-07 15:31 | 37.71502 | 25.79670 | 30118 ft | 404 kts | 330° |
| 2026-05-07 15:32 | 37.76514 | 25.76541 | 30120 ft | 404 kts | 330° |
| 2026-05-07 15:32 | 37.81571 | 25.73377 | 30125 ft | 404 kts | 330° |
| 2026-05-07 15:33 | 37.86614 | 25.70229 | 30134 ft | 404 kts | 330° |
| 2026-05-07 15:33 | 37.91664 | 25.67075 | 30133 ft | 404 kts | 330° |
| 2026-05-07 15:34 | 37.96680 | 25.63932 | 30129 ft | 404 kts | 329° |
| 2026-05-07 15:34 | 38.01722 | 25.60766 | 30136 ft | 404 kts | 330° |
| 2026-05-07 15:35 | 38.06785 | 25.57589 | 30101 ft | 407 kts | 330° |
| 2026-05-07 15:35 | 38.11884 | 25.54373 | 30100 ft | 409 kts | 330° |
| 2026-05-07 15:36 | 38.16962 | 25.51158 | 30102 ft | 411 kts | 330° |
| 2026-05-07 15:36 | 38.22090 | 25.47919 | 30107 ft | 412 kts | 330° |
| 2026-05-07 15:37 | 38.27229 | 25.44676 | 30109 ft | 413 kts | 330° |
| 2026-05-07 15:37 | 38.32403 | 25.41395 | 30093 ft | 417 kts | 330° |
| 2026-05-07 15:38 | 38.37621 | 25.38084 | 30093 ft | 420 kts | 330° |
| 2026-05-07 15:38 | 38.42859 | 25.34748 | 30097 ft | 421 kts | 330° |
| 2026-05-07 15:39 | 38.48119 | 25.31400 | 30110 ft | 422 kts | 330° |
| 2026-05-07 15:39 | 38.53335 | 25.28085 | 30102 ft | 422 kts | 330° |
| 2026-05-07 15:40 | 38.58612 | 25.24715 | 30090 ft | 425 kts | 330° |
| 2026-05-07 15:40 | 38.63917 | 25.21312 | 30092 ft | 427 kts | 330° |
| 2026-05-07 15:41 | 38.69210 | 25.17919 | 30102 ft | 428 kts | 330° |
| 2026-05-07 15:41 | 38.74537 | 25.14504 | 30104 ft | 428 kts | 330° |
| 2026-05-07 15:42 | 38.79878 | 25.11065 | 30090 ft | 430 kts | 331° |
| 2026-05-07 15:42 | 38.85249 | 25.07606 | 30089 ft | 433 kts | 331° |
| 2026-05-07 15:43 | 38.90614 | 25.04145 | 30094 ft | 434 kts | 331° |
| 2026-05-07 15:43 | 38.96027 | 25.00644 | 30110 ft | 435 kts | 330° |
| 2026-05-07 15:44 | 39.01434 | 24.97142 | 30130 ft | 435 kts | 330° |
| 2026-05-07 15:44 | 39.06844 | 24.93623 | 30103 ft | 436 kts | 331° |
| 2026-05-07 15:45 | 39.12002 | 24.89654 | 30097 ft | 434 kts | 321° |
| 2026-05-07 15:45 | 39.16841 | 24.84970 | 30100 ft | 435 kts | 321° |
| 2026-05-07 15:46 | 39.24108 | 24.77928 | 30107 ft | 435 kts | 321° |
| 2026-05-07 15:47 | 39.28928 | 24.73247 | 30104 ft | 436 kts | 321° |
| 2026-05-07 15:47 | 39.33782 | 24.68525 | 30100 ft | 437 kts | 321° |
| 2026-05-07 15:48 | 39.38655 | 24.63786 | 30099 ft | 438 kts | 321° |
| 2026-05-07 15:48 | 39.43498 | 24.59067 | 30102 ft | 438 kts | 321° |
| 2026-05-07 15:49 | 39.48364 | 24.54307 | 30101 ft | 438 kts | 321° |
| 2026-05-07 15:49 | 39.53234 | 24.49535 | 30113 ft | 439 kts | 321° |
| 2026-05-07 15:50 | 39.58112 | 24.44759 | 30096 ft | 439 kts | 321° |
| 2026-05-07 15:50 | 39.62994 | 24.39967 | 30096 ft | 440 kts | 321° |
| 2026-05-07 15:51 | 39.67844 | 24.35188 | 30103 ft | 441 kts | 320° |
| 2026-05-07 15:51 | 39.72728 | 24.30356 | 30100 ft | 441 kts | 320° |
| 2026-05-07 15:52 | 39.77625 | 24.25517 | 30099 ft | 442 kts | 320° |
| 2026-05-07 15:52 | 39.82532 | 24.20672 | 30103 ft | 443 kts | 320° |
| 2026-05-07 15:53 | 39.87411 | 24.15835 | 30105 ft | 444 kts | 320° |
| 2026-05-07 15:53 | 39.92327 | 24.10939 | 30106 ft | 444 kts | 320° |
| 2026-05-07 15:54 | 39.97243 | 24.06040 | 30109 ft | 445 kts | 320° |
| 2026-05-07 15:54 | 40.02163 | 24.01132 | 30106 ft | 445 kts | 320° |
| 2026-05-07 15:55 | 40.07056 | 23.96257 | 30117 ft | 445 kts | 320° |
| 2026-05-07 15:55 | 40.11977 | 23.91343 | 30110 ft | 445 kts | 320° |
| 2026-05-07 15:56 | 40.16899 | 23.86404 | 30116 ft | 445 kts | 320° |
| 2026-05-07 15:56 | 40.21820 | 23.81453 | 30118 ft | 446 kts | 320° |
| 2026-05-07 15:57 | 40.26710 | 23.76521 | 30118 ft | 446 kts | 320° |
| 2026-05-07 15:57 | 40.31623 | 23.71570 | 30129 ft | 445 kts | 319° |
| 2026-05-07 15:58 | 40.36534 | 23.66617 | 30125 ft | 444 kts | 319° |
| 2026-05-07 15:58 | 40.41420 | 23.61664 | 30122 ft | 444 kts | 319° |
| 2026-05-07 15:59 | 40.46277 | 23.56728 | 30125 ft | 444 kts | 319° |
| 2026-05-07 15:59 | 40.51168 | 23.51761 | 30125 ft | 444 kts | 319° |
| 2026-05-07 16:00 | 40.55235 | 23.47626 | 30130 ft | 444 kts | 319° |
| 2026-05-07 16:00 | 40.60122 | 23.42648 | 30150 ft | 444 kts | 319° |
| 2026-05-07 16:01 | 40.64999 | 23.37662 | 30140 ft | 444 kts | 319° |
| 2026-05-07 16:01 | 40.69878 | 23.32661 | 30139 ft | 444 kts | 319° |
| 2026-05-07 16:02 | 40.74725 | 23.27679 | 30136 ft | 444 kts | 319° |
| 2026-05-07 16:02 | 40.79605 | 23.22673 | 30138 ft | 444 kts | 319° |
| 2026-05-07 16:03 | 40.84480 | 23.17660 | 30152 ft | 444 kts | 319° |
| 2026-05-07 16:03 | 40.89318 | 23.12663 | 30147 ft | 444 kts | 319° |
| 2026-05-07 16:04 | 40.94188 | 23.07629 | 30148 ft | 444 kts | 319° |
| 2026-05-07 16:04 | 40.99056 | 23.02583 | 30142 ft | 444 kts | 319° |
| 2026-05-07 16:05 | 41.03922 | 22.97529 | 30151 ft | 444 kts | 319° |
| 2026-05-07 16:05 | 41.08783 | 22.92493 | 30149 ft | 444 kts | 319° |
| 2026-05-07 16:06 | 41.13618 | 22.87474 | 30149 ft | 443 kts | 318° |
| 2026-05-07 16:06 | 41.18465 | 22.82410 | 30143 ft | 443 kts | 318° |
| 2026-05-07 16:07 | 41.23309 | 22.77337 | 30148 ft | 443 kts | 318° |
| 2026-05-07 16:07 | 41.27640 | 22.71606 | 30137 ft | 439 kts | 309° |
| 2026-05-07 16:08 | 41.31750 | 22.65582 | 30134 ft | 439 kts | 309° |
| 2026-05-07 16:08 | 41.35864 | 22.59569 | 30140 ft | 439 kts | 309° |
| 2026-05-07 16:09 | 41.39944 | 22.53589 | 30140 ft | 438 kts | 309° |
| 2026-05-07 16:09 | 41.44033 | 22.47569 | 30142 ft | 438 kts | 309° |
| 2026-05-07 16:10 | 41.48120 | 22.41543 | 30137 ft | 438 kts | 309° |
| 2026-05-07 16:10 | 41.52200 | 22.35519 | 30135 ft | 437 kts | 309° |
| 2026-05-07 16:11 | 41.56256 | 22.29524 | 30125 ft | 437 kts | 309° |
| 2026-05-07 16:11 | 41.60324 | 22.23492 | 30123 ft | 437 kts | 308° |
| 2026-05-07 16:12 | 41.64389 | 22.17450 | 30127 ft | 437 kts | 308° |
| 2026-05-07 16:12 | 41.68452 | 22.11394 | 30141 ft | 436 kts | 308° |
| 2026-05-07 16:13 | 41.72476 | 22.05385 | 30130 ft | 435 kts | 308° |
| 2026-05-07 16:13 | 41.76524 | 21.99337 | 30129 ft | 435 kts | 308° |
| 2026-05-07 16:14 | 41.80552 | 21.93309 | 30124 ft | 434 kts | 308° |
| 2026-05-07 16:14 | 41.84556 | 21.87307 | 30121 ft | 433 kts | 308° |
| 2026-05-07 16:15 | 41.88568 | 21.81278 | 30119 ft | 433 kts | 308° |
| 2026-05-07 16:15 | 41.92568 | 21.75243 | 30145 ft | 432 kts | 308° |
| 2026-05-07 16:16 | 41.96550 | 21.69225 | 30138 ft | 430 kts | 308° |
| 2026-05-07 16:16 | 42.00522 | 21.63210 | 30128 ft | 430 kts | 307° |
| 2026-05-07 16:17 | 42.04489 | 21.57198 | 30122 ft | 429 kts | 307° |
| 2026-05-07 16:17 | 42.08453 | 21.51173 | 30112 ft | 429 kts | 307° |
| 2026-05-07 16:18 | 42.12414 | 21.45150 | 30103 ft | 429 kts | 307° |
| 2026-05-07 16:18 | 42.16367 | 21.39111 | 30103 ft | 429 kts | 307° |
| 2026-05-07 16:19 | 42.20234 | 21.33047 | 30113 ft | 429 kts | 306° |
| 2026-05-07 16:19 | 42.24088 | 21.26893 | 30109 ft | 429 kts | 306° |
| 2026-05-07 16:20 | 42.27944 | 21.20738 | 30110 ft | 429 kts | 306° |
| 2026-05-07 16:20 | 42.31774 | 21.14625 | 30105 ft | 429 kts | 306° |
| 2026-05-07 16:21 | 42.35626 | 21.08467 | 30122 ft | 428 kts | 307° |
| 2026-05-07 16:21 | 42.39473 | 21.02318 | 30120 ft | 428 kts | 307° |
| 2026-05-07 16:22 | 42.43318 | 20.96165 | 30123 ft | 428 kts | 307° |
| 2026-05-07 16:22 | 42.47157 | 20.89999 | 30120 ft | 428 kts | 306° |
| 2026-05-07 16:23 | 42.50993 | 20.83831 | 30111 ft | 428 kts | 306° |
| 2026-05-07 16:23 | 42.54811 | 20.77678 | 30109 ft | 428 kts | 307° |
| 2026-05-07 16:24 | 42.58634 | 20.71498 | 30125 ft | 427 kts | 307° |
| 2026-05-07 16:24 | 42.62446 | 20.65331 | 30111 ft | 426 kts | 307° |
| 2026-05-07 16:25 | 42.66248 | 20.59154 | 30100 ft | 425 kts | 307° |
| 2026-05-07 16:25 | 42.70052 | 20.52969 | 30101 ft | 425 kts | 307° |
| 2026-05-07 16:26 | 42.73823 | 20.46828 | 30088 ft | 425 kts | 307° |
| 2026-05-07 16:26 | 42.77612 | 20.40645 | 30111 ft | 424 kts | 307° |
| 2026-05-07 16:27 | 42.81379 | 20.34477 | 30103 ft | 423 kts | 307° |
| 2026-05-07 16:27 | 42.84690 | 20.27927 | 30094 ft | 419 kts | 296° |
| 2026-05-07 16:28 | 42.87441 | 20.20969 | 30092 ft | 418 kts | 296° |
| 2026-05-07 16:28 | 42.90211 | 20.13978 | 30070 ft | 418 kts | 296° |
| 2026-05-07 16:29 | 42.92962 | 20.07012 | 30088 ft | 416 kts | 296° |
| 2026-05-07 16:29 | 42.95694 | 20.00068 | 30093 ft | 414 kts | 296° |
| 2026-05-07 16:30 | 42.98394 | 19.93188 | 30083 ft | 413 kts | 296° |
| 2026-05-07 16:30 | 43.01098 | 19.86275 | 30075 ft | 412 kts | 296° |
| 2026-05-07 16:31 | 43.03795 | 19.79362 | 30089 ft | 412 kts | 296° |
| 2026-05-07 16:31 | 43.06486 | 19.72458 | 30078 ft | 411 kts | 295° |
| 2026-05-07 16:32 | 43.09181 | 19.65539 | 30071 ft | 411 kts | 295° |
| 2026-05-07 16:32 | 43.11851 | 19.58613 | 30060 ft | 411 kts | 295° |
| 2026-05-07 16:33 | 43.14498 | 19.51720 | 30060 ft | 411 kts | 295° |
| 2026-05-07 16:33 | 43.17168 | 19.44785 | 30057 ft | 411 kts | 295° |
| 2026-05-07 16:34 | 43.19847 | 19.37832 | 30044 ft | 412 kts | 295° |
| 2026-05-07 16:34 | 43.22503 | 19.30929 | 30041 ft | 412 kts | 295° |
| 2026-05-07 16:35 | 43.25173 | 19.23959 | 30047 ft | 412 kts | 294° |
| 2026-05-07 16:35 | 43.27847 | 19.16959 | 30047 ft | 412 kts | 295° |
| 2026-05-07 16:36 | 43.30526 | 19.09991 | 30066 ft | 413 kts | 294° |
| 2026-05-07 16:36 | 43.33182 | 19.03054 | 30055 ft | 412 kts | 294° |
| 2026-05-07 16:37 | 43.35837 | 18.96073 | 30058 ft | 412 kts | 294° |
| 2026-05-07 16:37 | 43.38479 | 18.89074 | 30054 ft | 412 kts | 294° |
| 2026-05-07 16:38 | 43.41123 | 18.82072 | 30051 ft | 412 kts | 294° |
| 2026-05-07 16:38 | 43.43761 | 18.75065 | 30078 ft | 412 kts | 293° |
| 2026-05-07 16:39 | 43.46371 | 18.68106 | 30082 ft | 411 kts | 293° |
| 2026-05-07 16:39 | 43.48988 | 18.61108 | 30080 ft | 410 kts | 293° |
| 2026-05-07 16:40 | 43.51601 | 18.54119 | 30082 ft | 410 kts | 293° |
| 2026-05-07 16:40 | 43.54206 | 18.47137 | 30080 ft | 409 kts | 293° |
| 2026-05-07 16:41 | 43.56790 | 18.40199 | 30101 ft | 409 kts | 292° |
| 2026-05-07 16:41 | 43.59381 | 18.33221 | 30083 ft | 408 kts | 292° |
| 2026-05-07 16:42 | 43.61963 | 18.26242 | 30074 ft | 407 kts | 292° |
| 2026-05-07 16:42 | 43.64540 | 18.19270 | 30067 ft | 407 kts | 292° |
| 2026-05-07 16:43 | 43.67109 | 18.12293 | 30063 ft | 407 kts | 292° |
| 2026-05-07 16:43 | 43.69660 | 18.05349 | 30067 ft | 407 kts | 292° |
| 2026-05-07 16:44 | 43.72228 | 17.98343 | 30065 ft | 408 kts | 292° |
| 2026-05-07 16:44 | 43.74783 | 17.91339 | 30066 ft | 407 kts | 292° |
| 2026-05-07 16:45 | 43.77315 | 17.84381 | 30093 ft | 407 kts | 292° |
| 2026-05-07 16:45 | 43.79868 | 17.77366 | 30103 ft | 407 kts | 292° |
| 2026-05-07 16:46 | 43.82412 | 17.70350 | 30098 ft | 407 kts | 291° |
| 2026-05-07 16:46 | 43.84932 | 17.63370 | 30087 ft | 407 kts | 291° |
| 2026-05-07 16:47 | 43.87463 | 17.56337 | 30083 ft | 407 kts | 291° |
| 2026-05-07 16:47 | 43.89985 | 17.49343 | 30095 ft | 407 kts | 291° |
| 2026-05-07 16:48 | 43.92514 | 17.42306 | 30090 ft | 407 kts | 291° |
| 2026-05-07 16:48 | 43.94612 | 17.36459 | 30083 ft | 407 kts | 291° |
| 2026-05-07 16:49 | 43.97141 | 17.29407 | 30089 ft | 407 kts | 291° |
| 2026-05-07 16:49 | 43.99646 | 17.22356 | 30108 ft | 407 kts | 291° |
| 2026-05-07 16:50 | 44.02148 | 17.15301 | 30102 ft | 407 kts | 291° |
| 2026-05-07 16:50 | 44.04636 | 17.08251 | 30094 ft | 406 kts | 291° |
| 2026-05-07 16:51 | 44.07091 | 17.01237 | 30083 ft | 406 kts | 291° |
| 2026-05-07 16:51 | 44.09578 | 16.94181 | 30087 ft | 406 kts | 291° |
| 2026-05-07 16:52 | 44.12089 | 16.87138 | 30083 ft | 406 kts | 292° |
| 2026-05-07 16:52 | 44.14581 | 16.80080 | 30075 ft | 407 kts | 291° |
| 2026-05-07 16:53 | 44.17064 | 16.72982 | 30056 ft | 408 kts | 291° |
| 2026-05-07 16:53 | 44.19533 | 16.65908 | 30048 ft | 408 kts | 291° |
| 2026-05-07 16:54 | 44.22021 | 16.58774 | 30053 ft | 409 kts | 291° |
| 2026-05-07 16:54 | 44.24495 | 16.51625 | 30063 ft | 408 kts | 291° |
| 2026-05-07 16:55 | 44.26950 | 16.44534 | 30057 ft | 408 kts | 291° |
| 2026-05-07 16:55 | 44.29419 | 16.37398 | 30055 ft | 408 kts | 291° |
| 2026-05-07 16:56 | 44.31884 | 16.30248 | 30056 ft | 408 kts | 291° |
| 2026-05-07 16:56 | 44.35564 | 16.19530 | 30075 ft | 407 kts | 291° |
| 2026-05-07 16:57 | 44.38001 | 16.12403 | 30074 ft | 406 kts | 291° |
| 2026-05-07 16:57 | 44.40433 | 16.05288 | 30064 ft | 405 kts | 291° |
| 2026-05-07 16:58 | 44.42839 | 15.98221 | 30062 ft | 405 kts | 291° |
| 2026-05-07 16:58 | 44.45256 | 15.91105 | 30082 ft | 404 kts | 291° |
| 2026-05-07 16:59 | 44.47668 | 15.83995 | 30079 ft | 404 kts | 291° |
| 2026-05-07 16:59 | 44.50067 | 15.76874 | 30067 ft | 403 kts | 291° |
| 2026-05-07 17:00 | 44.52445 | 15.69796 | 30058 ft | 404 kts | 291° |
| 2026-05-07 17:00 | 44.54845 | 15.62662 | 30055 ft | 404 kts | 291° |
| 2026-05-07 17:01 | 44.57237 | 15.55542 | 30071 ft | 403 kts | 290° |
| 2026-05-07 17:01 | 44.59618 | 15.48417 | 30062 ft | 402 kts | 290° |
| 2026-05-07 17:02 | 44.61967 | 15.41358 | 30057 ft | 401 kts | 290° |
| 2026-05-07 17:02 | 44.64325 | 15.34259 | 30053 ft | 401 kts | 290° |
| 2026-05-07 17:03 | 44.66682 | 15.27151 | 30067 ft | 401 kts | 290° |
| 2026-05-07 17:03 | 44.69035 | 15.20048 | 30060 ft | 400 kts | 290° |
| 2026-05-07 17:04 | 44.71355 | 15.12991 | 30055 ft | 400 kts | 290° |
| 2026-05-07 17:04 | 44.73688 | 15.05897 | 30048 ft | 399 kts | 290° |
| 2026-05-07 17:05 | 44.76021 | 14.98795 | 30044 ft | 399 kts | 290° |
| 2026-05-07 17:05 | 44.78345 | 14.91693 | 30041 ft | 400 kts | 290° |
| 2026-05-07 17:06 | 44.80652 | 14.84628 | 30065 ft | 399 kts | 290° |
| 2026-05-07 17:06 | 44.82961 | 14.77531 | 30054 ft | 398 kts | 290° |
| 2026-05-07 17:07 | 44.85260 | 14.70439 | 30049 ft | 398 kts | 290° |
| 2026-05-07 17:07 | 44.87554 | 14.63346 | 30044 ft | 397 kts | 290° |
| 2026-05-07 17:08 | 44.89839 | 14.56243 | 30048 ft | 397 kts | 290° |
| 2026-05-07 17:08 | 44.92127 | 14.49154 | 30045 ft | 397 kts | 290° |
| 2026-05-07 17:09 | 44.94397 | 14.42099 | 30046 ft | 396 kts | 290° |
| 2026-05-07 17:09 | 44.96667 | 14.34997 | 30042 ft | 396 kts | 289° |
| 2026-05-07 17:10 | 44.98923 | 14.27905 | 30036 ft | 396 kts | 289° |
| 2026-05-07 17:10 | 45.01177 | 14.20816 | 30061 ft | 395 kts | 289° |
| 2026-05-07 17:11 | 45.03415 | 14.13782 | 30054 ft | 394 kts | 289° |
| 2026-05-07 17:11 | 45.05658 | 14.06717 | 30044 ft | 393 kts | 289° |
| 2026-05-07 17:12 | 45.07888 | 13.99655 | 30040 ft | 393 kts | 289° |
| 2026-05-07 17:12 | 45.10102 | 13.92620 | 30048 ft | 393 kts | 289° |
| 2026-05-07 17:13 | 45.12321 | 13.85555 | 30041 ft | 392 kts | 289° |
| 2026-05-07 17:13 | 45.14529 | 13.78510 | 30030 ft | 389 kts | 289° |
| 2026-05-07 17:14 | 45.16717 | 13.71491 | 30016 ft | 389 kts | 289° |
| 2026-05-07 17:14 | 45.18885 | 13.64509 | 30014 ft | 389 kts | 289° |
| 2026-05-07 17:15 | 45.21062 | 13.57487 | 30024 ft | 389 kts | 289° |
| 2026-05-07 17:15 | 45.23245 | 13.50462 | 30019 ft | 388 kts | 289° |
| 2026-05-07 17:16 | 45.25417 | 13.43445 | 30013 ft | 388 kts | 289° |
| 2026-05-07 17:16 | 45.27581 | 13.36425 | 30009 ft | 388 kts | 289° |
| 2026-05-07 17:17 | 45.29681 | 13.29563 | 30001 ft | 388 kts | 288° |
| 2026-05-07 17:17 | 45.31859 | 13.22551 | 30004 ft | 389 kts | 290° |
| 2026-05-07 17:18 | 45.34323 | 13.15670 | 29988 ft | 390 kts | 292° |
| 2026-05-07 17:18 | 45.36873 | 13.08873 | 29985 ft | 390 kts | 292° |
| 2026-05-07 17:19 | 45.39375 | 13.02028 | 29986 ft | 389 kts | 292° |
| 2026-05-07 17:19 | 45.41828 | 12.95165 | 29980 ft | 389 kts | 291° |
| 2026-05-07 17:20 | 45.44259 | 12.88340 | 30032 ft | 389 kts | 292° |
| 2026-05-07 17:20 | 45.46711 | 12.81448 | 30010 ft | 389 kts | 292° |
| 2026-05-07 17:21 | 45.49159 | 12.74570 | 30003 ft | 389 kts | 292° |
| 2026-05-07 17:21 | 45.51603 | 12.67692 | 30000 ft | 389 kts | 292° |
| 2026-05-07 17:22 | 45.54035 | 12.60822 | 29998 ft | 389 kts | 292° |
| 2026-05-07 17:22 | 45.56464 | 12.53927 | 29990 ft | 389 kts | 292° |
| 2026-05-07 17:23 | 45.58880 | 12.47060 | 29993 ft | 389 kts | 292° |
| 2026-05-07 17:23 | 45.61305 | 12.40151 | 29994 ft | 389 kts | 292° |
| 2026-05-07 17:24 | 45.63730 | 12.33236 | 29995 ft | 389 kts | 292° |
| 2026-05-07 17:24 | 45.66157 | 12.26309 | 29998 ft | 389 kts | 292° |
| 2026-05-07 17:25 | 45.68554 | 12.19433 | 30012 ft | 389 kts | 292° |
| 2026-05-07 17:25 | 45.70968 | 12.12486 | 29986 ft | 389 kts | 292° |
| 2026-05-07 17:26 | 45.73375 | 12.05541 | 30015 ft | 390 kts | 292° |
| 2026-05-07 17:26 | 45.75784 | 11.98574 | 30008 ft | 389 kts | 292° |
| 2026-05-07 17:27 | 45.78166 | 11.91661 | 30004 ft | 389 kts | 292° |
| 2026-05-07 17:27 | 45.80553 | 11.84707 | 30011 ft | 389 kts | 292° |
| 2026-05-07 17:28 | 45.82942 | 11.77742 | 30003 ft | 389 kts | 292° |
| 2026-05-07 17:28 | 45.85338 | 11.70751 | 30000 ft | 390 kts | 292° |
| 2026-05-07 17:29 | 45.87732 | 11.63741 | 30001 ft | 390 kts | 292° |
| 2026-05-07 17:29 | 45.90097 | 11.56781 | 30013 ft | 390 kts | 292° |
| 2026-05-07 17:30 | 45.92475 | 11.49775 | 30015 ft | 390 kts | 292° |
| 2026-05-07 17:30 | 45.94850 | 11.42777 | 30023 ft | 390 kts | 292° |
| 2026-05-07 17:31 | 45.97223 | 11.35746 | 30027 ft | 390 kts | 292° |
| 2026-05-07 17:31 | 45.99587 | 11.28724 | 30034 ft | 390 kts | 292° |
| 2026-05-07 17:32 | 46.01937 | 11.21733 | 30073 ft | 389 kts | 292° |
| 2026-05-07 17:32 | 46.03900 | 11.15910 | 30089 ft | 390 kts | 294° |
| 2026-05-07 17:33 | 46.07002 | 11.07914 | 30072 ft | 392 kts | 297° |
| 2026-05-07 17:33 | 46.09802 | 11.01164 | 30067 ft | 393 kts | 297° |
| 2026-05-07 17:34 | 46.12573 | 10.94367 | 30052 ft | 392 kts | 296° |
| 2026-05-07 17:34 | 46.15267 | 10.87598 | 30052 ft | 392 kts | 296° |
| 2026-05-07 17:35 | 46.17985 | 10.80725 | 30046 ft | 393 kts | 296° |
| 2026-05-07 17:35 | 46.20696 | 10.73861 | 30038 ft | 393 kts | 296° |
| 2026-05-07 17:36 | 46.23414 | 10.66991 | 30049 ft | 394 kts | 296° |
| 2026-05-07 17:36 | 46.26118 | 10.60138 | 30046 ft | 394 kts | 296° |
| 2026-05-07 17:37 | 46.28828 | 10.53234 | 30043 ft | 394 kts | 296° |
| 2026-05-07 17:37 | 46.31533 | 10.46341 | 30041 ft | 393 kts | 296° |
| 2026-05-07 17:38 | 46.34218 | 10.39478 | 30027 ft | 395 kts | 296° |
| 2026-05-07 17:38 | 46.36922 | 10.32535 | 30026 ft | 395 kts | 296° |
| 2026-05-07 17:39 | 46.39609 | 10.25586 | 30022 ft | 396 kts | 296° |
| 2026-05-07 17:39 | 46.41832 | 10.19814 | 30024 ft | 395 kts | 296° |
| 2026-05-07 17:40 | 46.44962 | 10.11710 | 30019 ft | 396 kts | 296° |
| 2026-05-07 17:40 | 46.47698 | 10.04803 | 30022 ft | 398 kts | 301° |
| 2026-05-07 17:41 | 46.51292 | 9.98605 | 30018 ft | 403 kts | 307° |
| 2026-05-07 17:41 | 46.54386 | 9.93534 | 30037 ft | 403 kts | 308° |
| 2026-05-07 17:42 | 46.58097 | 9.87431 | 30023 ft | 402 kts | 308° |
| 2026-05-07 17:42 | 46.61807 | 9.81304 | 30023 ft | 403 kts | 308° |
| 2026-05-07 17:43 | 46.65514 | 9.75165 | 30024 ft | 403 kts | 307° |
| 2026-05-07 17:43 | 46.69193 | 9.69053 | 30022 ft | 404 kts | 307° |
| 2026-05-07 17:44 | 46.72894 | 9.62893 | 30019 ft | 403 kts | 307° |
| 2026-05-07 17:44 | 46.76592 | 9.56718 | 30030 ft | 405 kts | 307° |
| 2026-05-07 17:45 | 46.80280 | 9.50572 | 30047 ft | 403 kts | 308° |
| 2026-05-07 17:45 | 46.83986 | 9.44375 | 30042 ft | 405 kts | 308° |
| 2026-05-07 17:46 | 46.87687 | 9.38160 | 30030 ft | 405 kts | 308° |
| 2026-05-07 17:46 | 46.91357 | 9.31977 | 30020 ft | 406 kts | 308° |
| 2026-05-07 17:47 | 46.95064 | 9.25735 | 30016 ft | 406 kts | 308° |
| 2026-05-07 17:47 | 46.98759 | 9.19488 | 30024 ft | 406 kts | 308° |
| 2026-05-07 17:48 | 47.02454 | 9.13219 | 30049 ft | 406 kts | 308° |
| 2026-05-07 17:48 | 47.06159 | 9.06941 | 30050 ft | 406 kts | 308° |
| 2026-05-07 17:49 | 47.09856 | 9.00651 | 30030 ft | 407 kts | 308° |
| 2026-05-07 17:49 | 47.13536 | 8.94383 | 30026 ft | 408 kts | 308° |
| 2026-05-07 17:50 | 47.16524 | 8.87373 | 30023 ft | 404 kts | 291° |
| 2026-05-07 17:50 | 47.18505 | 8.79661 | 30025 ft | 404 kts | 289° |
| 2026-05-07 17:51 | 47.20470 | 8.71903 | 30022 ft | 404 kts | 289° |
| 2026-05-07 17:51 | 47.22423 | 8.64203 | 30013 ft | 405 kts | 289° |
| 2026-05-07 17:52 | 47.24390 | 8.56419 | 30009 ft | 406 kts | 289° |
| 2026-05-07 17:52 | 47.26356 | 8.48610 | 30014 ft | 407 kts | 289° |
| 2026-05-07 17:53 | 47.28325 | 8.40787 | 30015 ft | 407 kts | 289° |
| 2026-05-07 17:53 | 47.30295 | 8.32953 | 30029 ft | 408 kts | 289° |
| 2026-05-07 17:54 | 47.32245 | 8.25151 | 30020 ft | 408 kts | 289° |
| 2026-05-07 17:54 | 47.34201 | 8.17284 | 30019 ft | 409 kts | 289° |
| 2026-05-07 17:55 | 47.36152 | 8.09394 | 30023 ft | 409 kts | 289° |
| 2026-05-07 17:55 | 47.38105 | 8.01484 | 30023 ft | 410 kts | 289° |
| 2026-05-07 17:56 | 47.40054 | 7.93580 | 30023 ft | 410 kts | 289° |
| 2026-05-07 17:56 | 47.41990 | 7.85665 | 30028 ft | 410 kts | 288° |
| 2026-05-07 17:57 | 47.43597 | 7.79071 | 30026 ft | 410 kts | 288° |
| 2026-05-07 17:57 | 47.45836 | 7.69852 | 30027 ft | 410 kts | 288° |
| 2026-05-07 17:58 | 47.47439 | 7.61772 | 30030 ft | 409 kts | 283° |
| 2026-05-07 17:58 | 47.48824 | 7.53613 | 30031 ft | 409 kts | 283° |
| 2026-05-07 17:59 | 47.50207 | 7.45437 | 30029 ft | 409 kts | 283° |
| 2026-05-07 17:59 | 47.51571 | 7.37278 | 30029 ft | 410 kts | 283° |
| 2026-05-07 18:00 | 47.52926 | 7.29083 | 30034 ft | 410 kts | 283° |
| 2026-05-07 18:00 | 47.54275 | 7.20856 | 30036 ft | 410 kts | 282° |
| 2026-05-07 18:01 | 47.55609 | 7.12701 | 30038 ft | 410 kts | 283° |
| 2026-05-07 18:01 | 47.56957 | 7.04462 | 30028 ft | 411 kts | 282° |
| 2026-05-07 18:02 | 47.58945 | 6.92146 | 30024 ft | 412 kts | 282° |
| 2026-05-07 18:03 | 47.60276 | 6.83889 | 30035 ft | 412 kts | 282° |
| 2026-05-07 18:03 | 47.61607 | 6.75589 | 30030 ft | 413 kts | 282° |
| 2026-05-07 18:04 | 47.62920 | 6.67353 | 30031 ft | 413 kts | 282° |
| 2026-05-07 18:04 | 47.64232 | 6.59045 | 30031 ft | 414 kts | 282° |
| 2026-05-07 18:05 | 47.65540 | 6.50721 | 30026 ft | 414 kts | 282° |
| 2026-05-07 18:05 | 47.66841 | 6.42448 | 30029 ft | 414 kts | 282° |
| 2026-05-07 18:06 | 47.68148 | 6.34113 | 30032 ft | 414 kts | 282° |
| 2026-05-07 18:06 | 47.69517 | 6.25841 | 30037 ft | 415 kts | 284° |
| 2026-05-07 18:07 | 47.71229 | 6.17638 | 30034 ft | 415 kts | 287° |
| 2026-05-07 18:07 | 47.73045 | 6.09501 | 30039 ft | 415 kts | 287° |
| 2026-05-07 18:08 | 47.74810 | 6.01377 | 30045 ft | 415 kts | 286° |
| 2026-05-07 18:08 | 47.76535 | 5.93182 | 30050 ft | 415 kts | 286° |
| 2026-05-07 18:09 | 47.78246 | 5.84977 | 30058 ft | 415 kts | 286° |
| 2026-05-07 18:09 | 47.79943 | 5.76820 | 30059 ft | 415 kts | 286° |
| 2026-05-07 18:10 | 47.81644 | 5.68632 | 30059 ft | 415 kts | 286° |
| 2026-05-07 18:10 | 47.83340 | 5.60424 | 30059 ft | 415 kts | 286° |
| 2026-05-07 18:11 | 47.85036 | 5.52203 | 30064 ft | 414 kts | 286° |
| 2026-05-07 18:11 | 47.86710 | 5.44046 | 30066 ft | 415 kts | 285° |
| 2026-05-07 18:12 | 47.88390 | 5.35814 | 30061 ft | 415 kts | 285° |
| 2026-05-07 18:12 | 47.90169 | 5.27684 | 30057 ft | 416 kts | 292° |
| 2026-05-07 18:13 | 47.93340 | 5.20437 | 30045 ft | 420 kts | 310° |
| 2026-05-07 18:13 | 47.97286 | 5.14050 | 30043 ft | 421 kts | 310° |
| 2026-05-07 18:14 | 48.01221 | 5.07559 | 30047 ft | 421 kts | 310° |
| 2026-05-07 18:14 | 48.05148 | 5.01045 | 30045 ft | 422 kts | 310° |
| 2026-05-07 18:15 | 48.09064 | 4.94543 | 30045 ft | 422 kts | 310° |
| 2026-05-07 18:15 | 48.12996 | 4.87992 | 30060 ft | 422 kts | 310° |
| 2026-05-07 18:16 | 48.16915 | 4.81416 | 30051 ft | 423 kts | 310° |
| 2026-05-07 18:16 | 48.20839 | 4.74817 | 30054 ft | 423 kts | 310° |
| 2026-05-07 18:17 | 48.24748 | 4.68277 | 30046 ft | 424 kts | 310° |
| 2026-05-07 18:17 | 48.28713 | 4.61692 | 30046 ft | 425 kts | 310° |
| 2026-05-07 18:18 | 48.32663 | 4.55095 | 30060 ft | 425 kts | 310° |
| 2026-05-07 18:18 | 48.36599 | 4.48456 | 30057 ft | 425 kts | 309° |
| 2026-05-07 18:19 | 48.40501 | 4.41844 | 30051 ft | 425 kts | 309° |
| 2026-05-07 18:19 | 48.44434 | 4.35159 | 30052 ft | 425 kts | 309° |
| 2026-05-07 18:20 | 48.48354 | 4.28478 | 30054 ft | 426 kts | 309° |
| 2026-05-07 18:20 | 48.52283 | 4.21786 | 30051 ft | 426 kts | 309° |
| 2026-05-07 18:21 | 48.56187 | 4.15118 | 30053 ft | 426 kts | 309° |
| 2026-05-07 18:21 | 48.60124 | 4.08366 | 30065 ft | 426 kts | 309° |
| 2026-05-07 18:22 | 48.64024 | 4.01671 | 30066 ft | 427 kts | 309° |
| 2026-05-07 18:22 | 48.67954 | 3.94923 | 30063 ft | 427 kts | 309° |
| 2026-05-07 18:23 | 48.71867 | 3.88163 | 30063 ft | 426 kts | 309° |
| 2026-05-07 18:23 | 48.75914 | 3.81646 | 30060 ft | 428 kts | 313° |
| 2026-05-07 18:24 | 48.80216 | 3.75410 | 30063 ft | 428 kts | 314° |
| 2026-05-07 18:24 | 48.84530 | 3.69185 | 30061 ft | 428 kts | 314° |
| 2026-05-07 18:25 | 48.88781 | 3.62869 | 30067 ft | 427 kts | 313° |
| 2026-05-07 18:25 | 48.93008 | 3.56493 | 30068 ft | 427 kts | 313° |
| 2026-05-07 18:26 | 48.97235 | 3.50113 | 30072 ft | 427 kts | 313° |
| 2026-05-07 18:26 | 49.01448 | 3.43775 | 30069 ft | 428 kts | 313° |
| 2026-05-07 18:27 | 49.05679 | 3.37390 | 30071 ft | 428 kts | 313° |
| 2026-05-07 18:27 | 49.09906 | 3.30992 | 30068 ft | 428 kts | 313° |
| 2026-05-07 18:28 | 49.14120 | 3.24588 | 30070 ft | 428 kts | 313° |
| 2026-05-07 18:28 | 49.18334 | 3.18166 | 30069 ft | 428 kts | 313° |
| 2026-05-07 18:29 | 49.22553 | 3.11742 | 30069 ft | 428 kts | 313° |
| 2026-05-07 18:29 | 49.26746 | 3.05346 | 30082 ft | 428 kts | 313° |
| 2026-05-07 18:30 | 49.30957 | 2.98899 | 30074 ft | 428 kts | 313° |
| 2026-05-07 18:30 | 49.35157 | 2.92416 | 30072 ft | 427 kts | 312° |
| 2026-05-07 18:31 | 49.39336 | 2.85922 | 30068 ft | 427 kts | 312° |
| 2026-05-07 18:31 | 49.43519 | 2.79433 | 30070 ft | 427 kts | 313° |
| 2026-05-07 18:32 | 49.47683 | 2.72990 | 30070 ft | 427 kts | 313° |
| 2026-05-07 18:32 | 49.51873 | 2.66489 | 30084 ft | 427 kts | 312° |
| 2026-05-07 18:33 | 49.55349 | 2.61074 | 30078 ft | 427 kts | 312° |
| 2026-05-07 18:33 | 49.59526 | 2.54553 | 30073 ft | 427 kts | 312° |
| 2026-05-07 18:34 | 49.63563 | 2.47834 | 30068 ft | 426 kts | 308° |
| 2026-05-07 18:34 | 49.67335 | 2.40848 | 30067 ft | 426 kts | 307° |
| 2026-05-07 18:35 | 49.71107 | 2.33775 | 30063 ft | 426 kts | 308° |
| 2026-05-07 18:35 | 49.74919 | 2.26760 | 30074 ft | 426 kts | 308° |
| 2026-05-07 18:36 | 49.78759 | 2.19771 | 30077 ft | 426 kts | 308° |
| 2026-05-07 18:36 | 49.82577 | 2.12803 | 30065 ft | 426 kts | 308° |
| 2026-05-07 18:37 | 49.86403 | 2.05763 | 30066 ft | 427 kts | 308° |
| 2026-05-07 18:37 | 49.90221 | 1.98712 | 30065 ft | 427 kts | 308° |
| 2026-05-07 18:38 | 49.94030 | 1.91654 | 30065 ft | 427 kts | 308° |
| 2026-05-07 18:38 | 49.97841 | 1.84589 | 30076 ft | 426 kts | 308° |
| 2026-05-07 18:39 | 50.01625 | 1.77554 | 30075 ft | 426 kts | 308° |
| 2026-05-07 18:39 | 50.05425 | 1.70457 | 30070 ft | 426 kts | 307° |
| 2026-05-07 18:40 | 50.09624 | 1.63908 | 30067 ft | 429 kts | 316° |
| 2026-05-07 18:40 | 50.14142 | 1.57801 | 30031 ft | 431 kts | 316° |
| 2026-05-07 18:41 | 50.18657 | 1.51671 | 30034 ft | 434 kts | 316° |
| 2026-05-07 18:41 | 50.23223 | 1.45446 | 30035 ft | 436 kts | 316° |
| 2026-05-07 18:41 | 50.25505 | 1.42327 | 29688 ft | 435 kts | 316° |
| 2026-05-07 18:42 | 50.27794 | 1.39195 | 28390 ft | 437 kts | 316° |
| 2026-05-07 18:42 | 50.30074 | 1.36066 | 27343 ft | 434 kts | 316° |
| 2026-05-07 18:42 | 50.32336 | 1.32966 | 26380 ft | 430 kts | 316° |
| 2026-05-07 18:42 | 50.34573 | 1.29904 | 25483 ft | 424 kts | 316° |
| 2026-05-07 18:43 | 50.36775 | 1.26883 | 24577 ft | 418 kts | 316° |
| 2026-05-07 18:43 | 50.38949 | 1.23896 | 23656 ft | 413 kts | 316° |
| 2026-05-07 18:43 | 50.41089 | 1.20952 | 22878 ft | 402 kts | 316° |
| 2026-05-07 18:43 | 50.43154 | 1.18104 | 22473 ft | 391 kts | 316° |
| 2026-05-07 18:44 | 50.45186 | 1.15291 | 22014 ft | 388 kts | 316° |
| 2026-05-07 18:44 | 50.47198 | 1.12495 | 21551 ft | 385 kts | 316° |
| 2026-05-07 18:44 | 50.49168 | 1.09753 | 21102 ft | 382 kts | 316° |
| 2026-05-07 18:44 | 50.51148 | 1.06993 | 20643 ft | 379 kts | 315° |
| 2026-05-07 18:45 | 50.52973 | 1.04036 | 20168 ft | 375 kts | 311° |
| 2026-05-07 18:45 | 50.54749 | 1.01045 | 19688 ft | 373 kts | 311° |
| 2026-05-07 18:45 | 50.56521 | 0.98068 | 19198 ft | 371 kts | 311° |
| 2026-05-07 18:45 | 50.58277 | 0.95112 | 18704 ft | 369 kts | 311° |
| 2026-05-07 18:46 | 50.60020 | 0.92169 | 18206 ft | 367 kts | 311° |
| 2026-05-07 18:46 | 50.61761 | 0.89237 | 17677 ft | 364 kts | 311° |
| 2026-05-07 18:46 | 50.63481 | 0.86346 | 17189 ft | 360 kts | 311° |
| 2026-05-07 18:46 | 50.65187 | 0.83478 | 16706 ft | 357 kts | 311° |
| 2026-05-07 18:47 | 50.66851 | 0.80671 | 16224 ft | 354 kts | 311° |
| 2026-05-07 18:47 | 50.68496 | 0.77799 | 15609 ft | 354 kts | 309° |
| 2026-05-07 18:47 | 50.70090 | 0.74785 | 14813 ft | 361 kts | 307° |
| 2026-05-07 18:47 | 50.71661 | 0.71672 | 14048 ft | 365 kts | 306° |
| 2026-05-07 18:48 | 50.73229 | 0.68513 | 13476 ft | 363 kts | 306° |
| 2026-05-07 18:48 | 50.74778 | 0.65395 | 12847 ft | 357 kts | 306° |
| 2026-05-07 18:48 | 50.76311 | 0.62331 | 12089 ft | 354 kts | 307° |
| 2026-05-07 18:48 | 50.77834 | 0.59316 | 11508 ft | 343 kts | 307° |
| 2026-05-07 18:49 | 50.79280 | 0.56468 | 11379 ft | 321 kts | 307° |
| 2026-05-07 18:49 | 50.80639 | 0.53798 | 11244 ft | 304 kts | 307° |
| 2026-05-07 18:49 | 50.81940 | 0.51238 | 11039 ft | 294 kts | 307° |
| 2026-05-07 18:49 | 50.83213 | 0.48727 | 10599 ft | 294 kts | 307° |
| 2026-05-07 18:50 | 50.84486 | 0.46208 | 10284 ft | 291 kts | 307° |
| 2026-05-07 18:50 | 50.85726 | 0.43756 | 9957 ft | 287 kts | 307° |
| 2026-05-07 18:50 | 50.86970 | 0.41298 | 9276 ft | 284 kts | 307° |
| 2026-05-07 18:50 | 50.88199 | 0.38864 | 8779 ft | 283 kts | 307° |
| 2026-05-07 18:51 | 50.89413 | 0.36383 | 8316 ft | 285 kts | 301° |
| 2026-05-07 18:51 | 50.90199 | 0.33539 | 8033 ft | 279 kts | 288° |
| 2026-05-07 18:51 | 50.90796 | 0.30630 | 7735 ft | 276 kts | 286° |
| 2026-05-07 18:51 | 50.91365 | 0.27782 | 7422 ft | 274 kts | 287° |
| 2026-05-07 18:52 | 50.91934 | 0.24887 | 7091 ft | 274 kts | 287° |
| 2026-05-07 18:52 | 50.92487 | 0.22014 | 7001 ft | 273 kts | 286° |
| 2026-05-07 18:52 | 50.93040 | 0.19108 | 7004 ft | 275 kts | 286° |
| 2026-05-07 18:52 | 50.93593 | 0.16193 | 7012 ft | 275 kts | 286° |
| 2026-05-07 18:53 | 50.94143 | 0.13281 | 7019 ft | 275 kts | 286° |
| 2026-05-07 18:53 | 50.94685 | 0.10407 | 7027 ft | 275 kts | 286° |
| 2026-05-07 18:53 | 50.95234 | 0.07499 | 7030 ft | 275 kts | 286° |
| 2026-05-07 18:53 | 50.95785 | 0.04592 | 6887 ft | 274 kts | 286° |
| 2026-05-07 18:54 | 50.96328 | 0.01702 | 6570 ft | 274 kts | 286° |
| 2026-05-07 18:54 | 50.96864 | -0.01207 | 6231 ft | 273 kts | 286° |
| 2026-05-07 18:54 | 50.97390 | -0.04088 | 5918 ft | 271 kts | 286° |
| 2026-05-07 18:54 | 50.97904 | -0.06919 | 5748 ft | 264 kts | 286° |
| 2026-05-07 18:55 | 50.98406 | -0.09700 | 5496 ft | 260 kts | 286° |
| 2026-05-07 18:55 | 50.98902 | -0.12467 | 5205 ft | 258 kts | 286° |
| 2026-05-07 18:55 | 50.99381 | -0.15166 | 5092 ft | 249 kts | 286° |
| 2026-05-07 18:55 | 50.99843 | -0.17770 | 5008 ft | 242 kts | 286° |
| 2026-05-07 18:56 | 51.00298 | -0.20336 | 5009 ft | 242 kts | 286° |
| 2026-05-07 18:56 | 51.00754 | -0.22901 | 5010 ft | 242 kts | 286° |
| 2026-05-07 18:56 | 51.01211 | -0.25470 | 4919 ft | 240 kts | 286° |
| 2026-05-07 18:56 | 51.01656 | -0.27974 | 4600 ft | 239 kts | 286° |
| 2026-05-07 18:57 | 51.02107 | -0.30521 | 4279 ft | 238 kts | 286° |
| 2026-05-07 18:57 | 51.02559 | -0.33047 | 3975 ft | 237 kts | 286° |
| 2026-05-07 18:57 | 51.03010 | -0.35568 | 3643 ft | 236 kts | 286° |
| 2026-05-07 18:57 | 51.03456 | -0.38069 | 3397 ft | 232 kts | 286° |
| 2026-05-07 18:58 | 51.03892 | -0.40508 | 3173 ft | 228 kts | 286° |
| 2026-05-07 18:58 | 51.04320 | -0.42886 | 3013 ft | 227 kts | 286° |
| 2026-05-07 18:58 | 51.04778 | -0.45292 | 3011 ft | 228 kts | 293° |
| 2026-05-07 18:58 | 51.05727 | -0.47251 | 3010 ft | 225 kts | 328° |
| 2026-05-07 18:59 | 51.07075 | -0.48339 | 3015 ft | 213 kts | 339° |
| 2026-05-07 18:59 | 51.08461 | -0.49161 | 3007 ft | 212 kts | 349° |
| 2026-05-07 18:59 | 51.09891 | -0.49037 | 3010 ft | 207 kts | 25° |
| 2026-05-07 18:59 | 51.10897 | -0.47527 | 3014 ft | 202 kts | 68° |
| 2026-05-07 19:00 | 51.11203 | -0.45418 | 3014 ft | 192 kts | 81° |
| 2026-05-07 19:00 | 51.11438 | -0.43413 | 3043 ft | 174 kts | 82° |
| 2026-05-07 19:00 | 51.11666 | -0.41594 | 2883 ft | 169 kts | 78° |
| 2026-05-07 19:00 | 51.11920 | -0.39802 | 2651 ft | 163 kts | 79° |
| 2026-05-07 19:01 | 51.12166 | -0.38056 | 2459 ft | 161 kts | 79° |
| 2026-05-07 19:01 | 51.12410 | -0.36320 | 2227 ft | 160 kts | 80° |
| 2026-05-07 19:01 | 51.12651 | -0.34591 | 2018 ft | 160 kts | 80° |
| 2026-05-07 19:01 | 51.12894 | -0.32853 | 1801 ft | 161 kts | 79° |
| 2026-05-07 19:02 | 51.13137 | -0.31110 | 1576 ft | 161 kts | 79° |
| 2026-05-07 19:02 | 51.13378 | -0.29386 | 1372 ft | 153 kts | 79° |
| 2026-05-07 19:02 | 51.13601 | -0.27785 | 1140 ft | 144 kts | 80° |
| 2026-05-07 19:02 | 51.13812 | -0.26266 | 941 ft | 140 kts | 79° |
| 2026-05-07 19:03 | 51.14024 | -0.24768 | 748 ft | 138 kts | 79° |
| 2026-05-07 19:03 | 51.14229 | -0.23279 | 579 ft | 137 kts | 79° |
| 2026-05-07 19:03 | 51.14430 | -0.21805 | 380 ft | 135 kts | 79° |
| 2026-05-07 19:03 | 51.14633 | -0.20347 | 219 ft | 134 kts | 78° |
| 2026-05-07 19:04 | 51.14804 | -0.19119 | 215 ft | 91 kts | 77° |
| 2026-05-07 19:04 | 51.14903 | -0.18397 | 216 ft | 42 kts | 77° |
| 2026-05-07 19:04 | 51.14960 | -0.18030 | 212 ft | 32 kts | 69° |
| 2026-05-07 19:04 | 51.15068 | -0.17786 | 207 ft | 9 kts | 47° |
| 2026-05-07 19:05 | 51.15110 | -0.17755 | 208 ft | 7 kts | 342° |
| 2026-05-07 19:05 | 51.15170 | -0.17773 | 208 ft | 10 kts | 0° |
| 2026-05-07 19:05 | 51.15195 | -0.17685 | 205 ft | 11 kts | 88° |
| 2026-05-07 19:05 | 51.15202 | -0.17549 | 209 ft | 14 kts | 81° |
| 2026-05-07 19:06 | 51.15219 | -0.17430 | 209 ft | 7 kts | 76° |
| 2026-05-07 19:06 | 51.15228 | -0.17372 | 205 ft | 5 kts | 76° |
| 2026-05-07 19:06 | 51.15238 | -0.17303 | 208 ft | 8 kts | 76° |
| 2026-05-07 19:07 | 51.15254 | -0.17203 | 205 ft | 11 kts | 76° |
| 2026-05-07 19:07 | 51.15274 | -0.17072 | 210 ft | 14 kts | 76° |
| 2026-05-07 19:07 | 51.15293 | -0.16911 | 209 ft | 16 kts | 79° |
| 2026-05-07 19:07 | 51.15314 | -0.16745 | 205 ft | 10 kts | 74° |
| 2026-05-07 19:08 | 51.15372 | -0.16705 | 207 ft | 11 kts | 346° |
| 2026-05-07 19:08 | 51.15439 | -0.16706 | 211 ft | 10 kts | 25° |
| 2026-05-07 19:08 | 51.15491 | -0.16713 | 208 ft | 6 kts | 343° |
| 2026-05-07 19:08 | 51.15512 | -0.16721 | 209 ft | 2 kts | 347° |
| 2026-05-07 19:09 | 51.15516 | -0.16723 | 207 ft | 0 kts | 346° |